Timeline UpdatesTrip UpdatesNews PostsPvt PostsTravel TipsAdmin PostsConv PostsFollowed PostsChat RequestsBlog PostsPNR Posts

Disclaimer
Search
 
 
Fri Aug 22, 2014 07:28:23 ISTHomeTrainsΣChainsAtlasPNRForumGalleryNewsFAQTripsMembersLoginFeedback
No Recent News for this Train
Other Trains in the News **new
Latest...
Discontinued from 1/9/14 #1193229
Thu Aug 21, 2014 (09:08PM)
⇐ Return Journey: Train# 13040

13039/Howrah-Delhi Janta Express (UnReserved)

Yesterday (8:20PM)
Change Departure Station:
Change Arrival Station:
Post a Train Travel TipPost a Train Travel Tip **new
Post a Comment/Question/Picture/VideoPost a Comment/Question/Picture/Video
Inaugural Run
Tue Oct 01, 1946
Pantry/Catering
✕ NO Pantry Car
✕ NO Catering
RSA - Rake Sharing
Rake/Coach Composition
2 SLR, 5 General Class, and 5-7 HCPV proceeds to Delhi from Bakhtiyarpur.; 2 Sleeper class coaches and general coaches are attached at Bakhtiyarpur to 53232 Danapur-Tilaiya Passenger to run combined upto Rajgir (13039 - Slip); [Loco-SLR-HCPV-HCPV-HCPV-HCPV-HCPV-(HCPV-HCPV)-General-General]-[General-General-General-General-General-SLR-Sleeper-Sleeper]
Loco
Zahaib Entry# 624182 Loco: HWH WAP4
Train will Run till Sep 01 (subject to further announcements)
News    PNR    Forum    Time-Table    Availability    Fare Chart    Map    Arr/Dep History    Trips    Gallery    ΣChains    X/O    Timeline    
Travel Time: 4h 1m    7 halts    Distance: 238 km    Avg Speed: 59 km/hr
Type: Mail/Express
Zone: ER/Eastern
Departs @ 20:20 (Avg 2m late)
Platform# 8
SMTWTFS
Kolkata Howrah Junction/HWH 
Arrives @ 00:21 +1 night (Avg 36m late)
Platform# 3
SMTWTFS
Chittaranjan/CRJ 

7 halts. 60 intermediate Stations between Kolkata Howrah Junction and Chittaranjan

Show ALL intermediate Stations  Show Old Time-Table

#CodeStation NameX/OArrivesAvgDepartsAvgHaltPFDay#KmSpeedElevZoneAddress
1HWH»Kolkata Howrah Junction (23)»  -20:20+2810.05610mERHowrah 711101, West Bengal
2SRPSerampore (4)X  20:41+1020:42+141m--119.54711mERdist - hooghly, West Bengal
3CGRChandan Nagar (3)  20:59+1021:00+131m--132.72416mERDist -HOOGHLY - 712136, West Bengal
4BDCBandel Junction (7)  21:17+721:22+85m--139.57514mERdist - HOOGHLY, West Bengal
5BWNBarddhaman Junction (8)  22:16+1322:21+135m--1106.78134mERDist - Barddhaman, West Bengal
6DGRDurgapur (5)X  23:08+1323:10+132m--1170.37371mERDurgapur, West Bengal
7RNGRaniGanj (4)X  23:30+2223:31+271m--1194.65292mERRaniganj, West Bengal
8ASNAsansol Junction (7)  23:52+2423:57+285m--1212.763113mERDist - bardhaman, West Bengal
9CRJ•Chittaranjan (3)•  00:21+3600:22+361m32237.866182mERMihijam, Jharkhand
10MDPMadhupur Junction (4)X  01:13+3901:18+385m--2294.273254mER06432-224478, Jharkhand
11JSMEJasidih Junction (5)X  01:42+4101:47+415m--2323.380271mERJasidih, Jharkhand
12STLSimultala (2)X  02:06+4602:07+471m--2348.730247mERSimultala, Bihar
13JAJJhajha (4)X  02:45+3102:50+365m--2367.462143mECRJhajha, Bihar
14GHRGidhaur (2)X  03:01+4603:02+561m--2378.867106mECRState Highway 18, Bihar
15JMUJamui (3)  03:15+1:0203:16+1:031m--2393.411981mECRState Highway 72, Bihar
16BFMBhalui  03:25+1:0403:26+1:041m--2411.22256mECRState Highway 18, Bihar
17MNPMananpur (2)  03:33+1:0503:34+1:091m--2413.81757mECRState Highway 18, Bihar
18BSQPBansipur  03:43+1:0803:44+1:131m--2416.32453mECRKiul, Bihar
19KIULKiul Junction (5)X  03:55+1:0603:57+1:132m--2420.71053mECRDist. Lakhisarai, Bihar
20LKRLuckeesarai Junction (2)  04:05+1:2004:06+1:211m--2422.04852mECRLakhisarai, Bihar
21MKBMankatha  04:13+1:2204:14+1:251m--2427.63147mECRNational Highway 80, Bihar
22DMRXDumri Halt (1)XO  04:24-04:25-1m12432.9849mECRNational Highway 80, Bihar
23BRYABarhiya (3)O  04:57+5804:58+1:001m--2437.15647mECRBarahiya, Bihar
24RDUMRampur Dumra (3)O  05:04+1:0205:05+1:021m--2442.73346mECRNational Highway 80, Bihar
25HTZHathidah Junction (2)  05:12+1:0105:13+1:021m22446.54550mECRMusahari, Bihar
26ANAHAunta Halt  05:19-05:20-1m--2451.01444mECRPanchmahla, Bihar
27MKAMokama Junction (4)  05:36+5405:38+1:012m--2454.94848mECRPatna, Bihar
28MORMor (2)X  05:47+1:0105:48+1:021m--2462.13346mECRMor, Bihar
29KNHPKanhaipur (2)  05:54-05:55-1m--2465.43447mECRMor, Bihar
30MMKBMemrakhabad (2)  05:59-06:00-1m--2467.73249mECRMor, Bihar
31PHKPunarakh (2)X  06:05+5906:06+1:011m--2470.46251mECRPunarakh, Bihar
32BARHBarh (3)  06:16+1:0006:17+1:051m--2480.86149mECRBarh, Bihar
33ATLAthmal Gola (2)X  06:26+1:0506:27+1:081m--2490.04552mECRPatna, Bihar
34BKPBakhtiyarpur Junction (5)X06:39+1:0406:44+1:105m--2499.05051mECRPatna, Bihar
35TKBGTeka Bigha HaltX  06:49-06:50-1m--2503.26851mECRTeka Bigha, Bihar
36SMBHSalim Pur BiharO  06:54-06:55-1m--2507.73652mECRSalim Pur, Bihar
37KWOKarauta (2)  06:59+1:1407:00+1:171m--2510.17154mECRKarauta, Bihar
38KOOKhusropur (2)X  07:07+1:1607:08+1:211m--2518.45652mECRPatna, Bihar
39FUTFatwa (6)X  07:17+1:2107:18+1:231m--2526.84653mECRPatna, Bihar
40BKGBanka Ghat (2)  07:26+1:2007:27+1:211m--2532.96156mECRPatna, Bihar
41PNCPatna Saheb (3)X  07:33+1:2707:34+1:301m--2539.02659mECRPatna, Bihar
42GZHGulzarbagh (3)X  07:41+1:2707:42+1:311m--2542.12855mECRPatna, Bihar
43RJPBRajendra Nagar Bihar (4)X  07:51+1:3107:53+1:322m--2546.3755mECRPatna 800001, Bihar
44PNBEPatna Junction (10)X  08:15+1:0608:25+1:1010m--2548.93857mECRPatna 800001, Bihar
45DNRDanapur (5)X  08:40+1:2708:50+1:2710m--2558.36058mECRKhagaul, Bihar
46NEONeora (2)  08:56+1:3308:57+1:361m--2564.45361mECRNational Highway 98, Bihar
47SDESadisopur (2)X  09:05-09:06-1m--2571.43664mECRSadisopur, Bihar
48BTABihta (2)X  09:13+1:3509:14+1:361m--2575.74062mECRDistt: Patna, Bihar
49KWRKoelwar (2)  09:27-09:28-1m--2584.44365mECRNational Highway 30, Bihar
50KUAKulharia (2)X  09:33+1:3409:34+1:371m--2588.04261mECRChandi Sahar Rd, Bihar
51ARAAra Junction (3)X  09:48+1:3509:53+1:415m--2597.96663mECRarrah( 06182-233411), Bihar
52KRSKarisath (2)X  10:02+1:4510:03+1:491m--2607.87765mECRKarisath, Bihar
53BEABihiya (3)  10:12+1:5410:13+2:001m--2619.35967mECRBehea, Bihar
54BYNBanahi (2)  10:19+2:0310:20+2:031m--2625.25967mECRBanahi, Bihar
55RPRRaghunathpur (4)  10:29+1:5910:30+2:021m--2634.16369mECRRaghunathpur, Bihar
56TWGTwining GanjX  10:38+2:0610:39+2:071m--2642.43370mECRArrah Buxar Rd, Bihar
57DUREDumraon (3)  10:53+1:5010:54+1:511m--2650.05270mECRDumraon, Bihar
58BXRBuxar (3)O  11:13+1:4711:17+1:494m--2666.47367mECRBuxar, Bihar
59CSAChausa (2)X  11:26+1:4511:27+1:481m--2677.34368mECRState Highway 14, Bihar
60GMRGahmar (2)  11:40+2:0911:41+2:101m--2686.56168mECRDistt: Ghazipur, Uttar Pradesh
61BWHBhadaura (2)  11:49+2:0611:50+2:081m--2694.75269mECRGhazipur, Uttar Pradesh
62DLNDildarnagar Junction (2)O  11:59+2:0212:04+2:005m--2702.68172mECRDildarnagar, Uttar Pradesh
63ZNAZamania (2)X  12:14+2:0512:15+2:071m--2716.010477mECRGhazipur, Uttar Pradesh
64SLDSakaldiha (2)X  12:30+2:1412:31+2:151m--2742.11281mECRState Highway 69, Uttar Pradesh
65MGSMughal Sarai Junction (8)O  14:02+1:1414:17+1:1715m62760.32183mECRMughalsarai 232101, Uttar Pradesh
66ARWAhraura Road (4)X  14:56+1:1714:57+1:271m--2774.15185mNCRDist. Mirzapur - 231305, Uttar Pradesh
67KYTKailahat (4)  15:07+1:4215:08+1:461m--2782.54783mNCRKailahat, Uttar Pradesh
68CARChunar Junction (5)O  15:20+1:5815:22+2:022m32792.04985mNCRChunar Junction, Uttar Pradesh
69MZPMirzapur (3)O  16:00+2:0116:05+2:005m--2823.35588mNCRMirzapur, Uttar Pradesh
70BDLVindhyachal (3)XO  16:13+2:3616:15+2:392m32830.64988mNCRMirzapur, Uttar Pradesh
71GAEGaipura (4)XO  16:30+2:5216:31+2:561m--2842.93486mNCRGaipura, Uttar Pradesh
72JIAJigna (1)X  16:43+2:5916:44+3:021m12849.86294mNCRNational Highway 76, Uttar Pradesh
73MNFManda RoadX  16:52+2:5816:54+3:012m--2858.15493mNCRNH 76, Uttar Pradesh
74UNDUnchdihX  17:03+3:0717:04+3:091m--2866.27094mNCRUnchdih, Uttar Pradesh
75MJAMeja Road (4)XO  17:11+3:0417:13+3:062m--2874.36894mNCRDistrict Allahabad, Uttar Pradesh
76KCNKarchanaX  17:31+3:2017:32+3:121m--2894.85894mNCRKarchana, Uttar Pradesh
77NYNNaini Junction (4)  17:43+3:3917:44+3:411m22905.42098mNCRAllahabad, Uttar Pradesh
78ALDAllahabad Junction (10)X  18:05+2:4718:15+2:5510m42912.522100mNCRAllahabad 211003, Uttar Pradesh
79SFGSubedarGanj (3)  18:25+4:0918:26+4:121m--2916.250100mNCRAllahabad, Uttar Pradesh
80BMUBamhrauli  18:32+4:1518:33+4:171m--2921.356102mNCRAllahabad, Uttar Pradesh
81MREManauriO  18:42+4:1918:43+4:311m--2929.720105mNCRSabderganj-Fatehpur Rd, Uttar Pradesh
82SYWNSaiyid SarawanX  18:57+4:2418:58+4:261m--2934.345106mNCR212203 ?, Uttar Pradesh
83MNJManoharGanj  19:08+4:2619:09+4:421m--2941.752104mNCRNational Highway 2, Uttar Pradesh
84BREBharwari  19:18+4:4219:20+4:452m--2949.527108mNCRBharwari, Uttar Pradesh
85BDNPBidanpurXO  19:29+4:4319:30+4:511m--2953.662106mNCRBidanpur, Uttar Pradesh
86SJTShujaatpurX  19:36+4:5319:37+4:551m--2959.866107mNCRNational Highway 2, Uttar Pradesh
87SROSirathu (2)X  19:46+4:5919:48+5:092m12969.762109mNCRSirathu, Uttar Pradesh
88KGAKhaga (3)X  20:12+5:2020:14+5:282m--2994.580114mNCRFatehpur, Uttar Pradesh
89FTPFatehpur (3)  20:40+5:3720:45+5:475m--21029.274120mNCRFatehpur, Uttar Pradesh
90MWHMalwan (2)X  20:58+5:5821:00+6:052m--21045.383122mNCRFatehpur, Uttar Pradesh
91BKOBindki RoadXO  21:11+6:0321:13+6:132m--21060.526124mNCRFatehpur, Uttar Pradesh
92CNBKanpur Central (10)X  23:00+4:3623:10+4:4010m--21106.870128mNCRKANPUR-208 001, Uttar Pradesh
93RURARura (4)X  23:48+6:2123:50+6:242m--21151.171137mNCRJhinjhak, Uttar Pradesh
94JJKJhinjhak (3)X  00:06+5:5300:08+5:572m331170.270140mNCRAuraiya, Uttar Pradesh
95PHDPhaphund (4)XO  00:25+6:2700:27+6:312m--31190.025146mNCRdist. Auraiya, Uttar Pradesh
96ULDAchalda (3)X  01:07+6:1801:09+6:272m--31206.873147mNCRDist. Auraiya(05688-1072), Uttar Pradesh
97BNTBharthana (3)XO  01:25+6:2801:27+6:292m--31226.320147mNCRBharthana, Uttar Pradesh
98ETWEtawah (5)XO  02:27+4:4902:32+4:505m231246.213154mNCRDistt. Etawah, Uttar Pradesh
99JGRJaswantnagar (2)XO  03:46+5:0503:48+5:082m--31262.153154mNCRJaswantnagar, Uttar Pradesh
100SKBShikohabad Junction (4)O  04:33+4:5404:38+4:545m--31301.637166mNCRDistrict Firozabad, Uttar Pradesh
101FZDFirozabad (4)O  05:10+4:2205:15+4:255m331321.433164mNCRFirozabad, Uttar Pradesh
102TDLTundla Junction (5)O  05:45+4:4005:55+4:4210m--31338.055167mNCRDistt.Firozabad, Uttar Pradesh
103BRNBarhan Junction  06:11+5:0506:12+5:091m--31352.772173mNCRJN Point-Tundle/Aligarh/Etah, Uttar Pradesh
104JLSJalesar Road (1)  06:23+5:1606:24+5:211m131365.875172mNCRMDR 106W, Uttar Pradesh
105HRSHathras Junction (3)  06:40+5:2506:45+5:275m--31385.960183mNCRMahamaya Nagar(05722-242803), Uttar Pradesh
106SNSSasni (3)  06:54+5:3006:55+5:351m--31394.955185mNCRSasni, Uttar Pradesh
107MXKMandrak (2)  07:03+5:3807:04+5:411m--31402.276190mNCRNational Highway 93, Uttar Pradesh
108ALJNAligarh Junction (4)  07:15+4:4307:20+4:435m--31416.165192mNCRAligarh, Uttar Pradesh
109KLAKulwa (2)X  07:31+5:3707:32+5:381m--31428.068190mNCRAligarh, Uttar Pradesh
110SOMSomna (2)X  07:41+5:3907:42+5:401m--31438.268195mNCRNational Highway 91, Uttar Pradesh
111DARDanwar (2)X  07:51+5:4407:52+5:441m--31448.574198mNCRDanwar, Uttar Pradesh
112KRJKhurja Junction (4)XO  08:01+5:4308:06+5:415m--31459.67199mNCRBulandshahr, Uttar Pradesh
113SKQSikandarpur (2)  08:55+5:1808:56+5:181m--31465.267199mNCRMDR 70W, Uttar Pradesh
114CHLChola (3)O  09:04+5:2009:05+5:211m--31474.159204mNCRTahsil Bulandshahar, Uttar Pradesh
115WAIRWair (2)O  09:10+5:2409:11+5:241m131479.010203mNCRBulandshahr District, Uttar Pradesh
116DKDEDankaur (3)XO  10:05+4:4010:06+4:421m--31488.138209mNCRShyam Nagar Mandi, Uttar Pradesh
117GZBGhaziabad Junction (6)O  11:00+4:1911:02+4:182m--31522.248217mNRGhaziabad, Uttar Pradesh
118DSAShahdara Junction (4)  11:19+4:1211:21+4:122m--31535.916212mNRCircular Rd, Delhi NCT
119DLIOld Delhi Junction (16)  11:45+4:17-1331542.2-219mNRNear Chandni Chowk Metro Station, Delhi NCT
Scroll to Top
Scroll to Bottom